sensor_id;sensor_type;location;lat;lon;timestamp;P1;durP1;ratioP1;P2;durP2;ratioP2
48945;SDS011;34999;50.940;3.998;2023-11-21T00:00:05;77.97;;;25.53;;
48945;SDS011;34999;50.940;3.998;2023-11-21T00:05:48;90.77;;;28.37;;
48945;SDS011;34999;50.940;3.998;2023-11-21T00:08:16;102.87;;;28.10;;
48945;SDS011;34999;50.940;3.998;2023-11-21T00:10:45;99.27;;;29.03;;
48945;SDS011;34999;50.940;3.998;2023-11-21T00:13:14;104.50;;;29.23;;
48945;SDS011;34999;50.940;3.998;2023-11-21T00:15:45;96.17;;;29.27;;
48945;SDS011;34999;50.940;3.998;2023-11-21T00:18:13;89.20;;;27.90;;
48945;SDS011;34999;50.940;3.998;2023-11-21T00:20:43;82.50;;;28.67;;
48945;SDS011;34999;50.940;3.998;2023-11-21T00:23:11;97.00;;;29.80;;
48945;SDS011;34999;50.940;3.998;2023-11-21T00:25:39;85.57;;;26.77;;
48945;SDS011;34999;50.940;3.998;2023-11-21T00:28:07;91.83;;;29.00;;
48945;SDS011;34999;50.940;3.998;2023-11-21T00:30:36;101.17;;;29.70;;
48945;SDS011;34999;50.940;3.998;2023-11-21T00:33:05;102.87;;;30.57;;
48945;SDS011;34999;50.940;3.998;2023-11-21T00:35:34;88.30;;;28.20;;
48945;SDS011;34999;50.940;3.998;2023-11-21T00:38:02;108.57;;;29.83;;
48945;SDS011;34999;50.940;3.998;2023-11-21T00:40:31;93.17;;;29.57;;
48945;SDS011;34999;50.940;3.998;2023-11-21T00:42:59;87.23;;;29.50;;
48945;SDS011;34999;50.940;3.998;2023-11-21T00:45:30;94.90;;;31.77;;
48945;SDS011;34999;50.940;3.998;2023-11-21T00:47:58;92.53;;;30.27;;
48945;SDS011;34999;50.940;3.998;2023-11-21T00:50:28;95.47;;;30.97;;
48945;SDS011;34999;50.940;3.998;2023-11-21T00:52:56;86.80;;;31.33;;
48945;SDS011;34999;50.940;3.998;2023-11-21T00:55:24;119.37;;;34.07;;
48945;SDS011;34999;50.940;3.998;2023-11-21T00:57:54;93.10;;;31.30;;
48945;SDS011;34999;50.940;3.998;2023-11-21T01:00:22;99.13;;;31.03;;
48945;SDS011;34999;50.940;3.998;2023-11-21T01:02:51;107.87;;;32.90;;
48945;SDS011;34999;50.940;3.998;2023-11-21T01:05:19;91.30;;;31.23;;
48945;SDS011;34999;50.940;3.998;2023-11-21T01:07:49;88.00;;;31.87;;
48945;SDS011;34999;50.940;3.998;2023-11-21T01:10:17;99.07;;;32.93;;
48945;SDS011;34999;50.940;3.998;2023-11-21T01:12:45;103.13;;;32.30;;
48945;SDS011;34999;50.940;3.998;2023-11-21T01:15:16;100.13;;;32.47;;
48945;SDS011;34999;50.940;3.998;2023-11-21T01:17:45;93.03;;;31.90;;
48945;SDS011;34999;50.940;3.998;2023-11-21T01:20:13;106.83;;;33.60;;
48945;SDS011;34999;50.940;3.998;2023-11-21T01:22:42;98.90;;;32.03;;
48945;SDS011;34999;50.940;3.998;2023-11-21T01:25:12;95.10;;;31.37;;
48945;SDS011;34999;50.940;3.998;2023-11-21T01:27:41;101.77;;;35.10;;
48945;SDS011;34999;50.940;3.998;2023-11-21T01:30:09;106.17;;;34.20;;
48945;SDS011;34999;50.940;3.998;2023-11-21T01:32:38;90.40;;;33.87;;
48945;SDS011;34999;50.940;3.998;2023-11-21T01:35:07;101.47;;;32.50;;
48945;SDS011;34999;50.940;3.998;2023-11-21T01:37:37;85.83;;;31.90;;
48945;SDS011;34999;50.940;3.998;2023-11-21T01:40:07;102.97;;;34.77;;
48945;SDS011;34999;50.940;3.998;2023-11-21T01:42:38;97.03;;;32.47;;
48945;SDS011;34999;50.940;3.998;2023-11-21T01:45:06;91.50;;;33.33;;
48945;SDS011;34999;50.940;3.998;2023-11-21T01:47:36;84.63;;;30.27;;
48945;SDS011;34999;50.940;3.998;2023-11-21T01:50:06;83.37;;;31.63;;
48945;SDS011;34999;50.940;3.998;2023-11-21T01:52:38;98.97;;;33.73;;
48945;SDS011;34999;50.940;3.998;2023-11-21T01:55:08;107.10;;;35.40;;
48945;SDS011;34999;50.940;3.998;2023-11-21T01:57:38;92.10;;;35.10;;
48945;SDS011;34999;50.940;3.998;2023-11-21T02:00:07;89.20;;;31.87;;
48945;SDS011;34999;50.940;3.998;2023-11-21T02:08:53;74.50;;;28.77;;
48945;SDS011;34999;50.940;3.998;2023-11-21T02:11:22;75.53;;;30.10;;
48945;SDS011;34999;50.940;3.998;2023-11-21T02:13:51;80.30;;;27.77;;
48945;SDS011;34999;50.940;3.998;2023-11-21T02:16:20;81.97;;;30.30;;
48945;SDS011;34999;50.940;3.998;2023-11-21T02:18:48;81.40;;;30.50;;
48945;SDS011;34999;50.940;3.998;2023-11-21T02:21:18;82.27;;;30.80;;
48945;SDS011;34999;50.940;3.998;2023-11-21T02:23:48;83.13;;;33.17;;
48945;SDS011;34999;50.940;3.998;2023-11-21T02:26:17;81.70;;;29.60;;
48945;SDS011;34999;50.940;3.998;2023-11-21T02:28:46;82.80;;;30.90;;
48945;SDS011;34999;50.940;3.998;2023-11-21T02:31:14;92.33;;;32.13;;
48945;SDS011;34999;50.940;3.998;2023-11-21T02:33:43;82.37;;;33.00;;
48945;SDS011;34999;50.940;3.998;2023-11-21T02:36:11;95.60;;;32.80;;
48945;SDS011;34999;50.940;3.998;2023-11-21T02:38:40;83.40;;;29.27;;
48945;SDS011;34999;50.940;3.998;2023-11-21T02:41:11;83.23;;;30.30;;
48945;SDS011;34999;50.940;3.998;2023-11-21T02:43:39;92.63;;;29.93;;
48945;SDS011;34999;50.940;3.998;2023-11-21T02:46:08;87.40;;;29.13;;
48945;SDS011;34999;50.940;3.998;2023-11-21T02:48:36;90.67;;;30.73;;
48945;SDS011;34999;50.940;3.998;2023-11-21T02:51:04;78.57;;;27.57;;
48945;SDS011;34999;50.940;3.998;2023-11-21T02:53:32;84.83;;;28.50;;
48945;SDS011;34999;50.940;3.998;2023-11-21T02:56:01;90.90;;;30.70;;
48945;SDS011;34999;50.940;3.998;2023-11-21T02:58:31;77.10;;;29.60;;
48945;SDS011;34999;50.940;3.998;2023-11-21T03:01:00;78.37;;;29.50;;
48945;SDS011;34999;50.940;3.998;2023-11-21T03:03:28;80.53;;;28.90;;
48945;SDS011;34999;50.940;3.998;2023-11-21T03:05:56;74.17;;;28.73;;
48945;SDS011;34999;50.940;3.998;2023-11-21T03:08:24;88.97;;;30.93;;
48945;SDS011;34999;50.940;3.998;2023-11-21T03:10:53;92.43;;;30.37;;
48945;SDS011;34999;50.940;3.998;2023-11-21T03:13:21;77.63;;;28.90;;
48945;SDS011;34999;50.940;3.998;2023-11-21T03:15:50;80.27;;;28.37;;
48945;SDS011;34999;50.940;3.998;2023-11-21T03:18:19;80.67;;;29.17;;
48945;SDS011;34999;50.940;3.998;2023-11-21T03:20:48;77.00;;;28.07;;
48945;SDS011;34999;50.940;3.998;2023-11-21T03:23:16;78.00;;;29.47;;
48945;SDS011;34999;50.940;3.998;2023-11-21T03:25:45;78.50;;;28.70;;
48945;SDS011;34999;50.940;3.998;2023-11-21T03:28:13;87.60;;;28.93;;
48945;SDS011;34999;50.940;3.998;2023-11-21T03:30:41;75.23;;;26.90;;
48945;SDS011;34999;50.940;3.998;2023-11-21T03:33:11;72.57;;;28.00;;
48945;SDS011;34999;50.940;3.998;2023-11-21T03:35:40;74.93;;;28.30;;
48945;SDS011;34999;50.940;3.998;2023-11-21T03:38:11;74.43;;;27.27;;
48945;SDS011;34999;50.940;3.998;2023-11-21T03:40:39;84.07;;;27.53;;
48945;SDS011;34999;50.940;3.998;2023-11-21T03:43:08;72.70;;;26.23;;
48945;SDS011;34999;50.940;3.998;2023-11-21T03:45:36;85.37;;;28.87;;
48945;SDS011;34999;50.940;3.998;2023-11-21T03:48:06;90.50;;;30.10;;
48945;SDS011;34999;50.940;3.998;2023-11-21T03:50:36;85.73;;;29.73;;
48945;SDS011;34999;50.940;3.998;2023-11-21T03:53:05;87.97;;;28.53;;
48945;SDS011;34999;50.940;3.998;2023-11-21T03:55:33;81.97;;;27.37;;
48945;SDS011;34999;50.940;3.998;2023-11-21T03:58:01;71.20;;;26.73;;
48945;SDS011;34999;50.940;3.998;2023-11-21T04:00:29;72.90;;;26.03;;
48945;SDS011;34999;50.940;3.998;2023-11-21T04:02:59;71.87;;;26.37;;
48945;SDS011;34999;50.940;3.998;2023-11-21T04:05:27;77.50;;;28.47;;
48945;SDS011;34999;50.940;3.998;2023-11-21T04:07:57;72.10;;;27.20;;
48945;SDS011;34999;50.940;3.998;2023-11-21T04:10:25;70.57;;;26.53;;
48945;SDS011;34999;50.940;3.998;2023-11-21T04:12:53;83.17;;;27.30;;
48945;SDS011;34999;50.940;3.998;2023-11-21T04:15:22;78.93;;;26.57;;
48945;SDS011;34999;50.940;3.998;2023-11-21T04:17:50;74.17;;;27.30;;
48945;SDS011;34999;50.940;3.998;2023-11-21T04:20:18;86.93;;;27.47;;
48945;SDS011;34999;50.940;3.998;2023-11-21T04:22:46;70.17;;;26.47;;
48945;SDS011;34999;50.940;3.998;2023-11-21T04:25:16;69.10;;;26.17;;
48945;SDS011;34999;50.940;3.998;2023-11-21T04:27:45;61.93;;;25.63;;
48945;SDS011;34999;50.940;3.998;2023-11-21T04:30:13;65.20;;;25.83;;
48945;SDS011;34999;50.940;3.998;2023-11-21T04:32:42;61.03;;;24.83;;
48945;SDS011;34999;50.940;3.998;2023-11-21T04:35:10;63.93;;;24.27;;
48945;SDS011;34999;50.940;3.998;2023-11-21T04:37:38;64.73;;;23.63;;
48945;SDS011;34999;50.940;3.998;2023-11-21T04:40:07;78.43;;;26.90;;
48945;SDS011;34999;50.940;3.998;2023-11-21T04:42:38;71.47;;;27.07;;
48945;SDS011;34999;50.940;3.998;2023-11-21T04:45:06;68.57;;;26.80;;
48945;SDS011;34999;50.940;3.998;2023-11-21T04:47:38;77.87;;;28.40;;
48945;SDS011;34999;50.940;3.998;2023-11-21T04:50:06;63.23;;;24.70;;
48945;SDS011;34999;50.940;3.998;2023-11-21T04:52:35;94.00;;;31.80;;
48945;SDS011;34999;50.940;3.998;2023-11-21T04:55:03;90.60;;;30.87;;
48945;SDS011;34999;50.940;3.998;2023-11-21T04:57:33;67.47;;;24.60;;
48945;SDS011;34999;50.940;3.998;2023-11-21T05:00:02;74.23;;;26.23;;
48945;SDS011;34999;50.940;3.998;2023-11-21T05:02:32;56.80;;;23.03;;
48945;SDS011;34999;50.940;3.998;2023-11-21T05:05:02;80.17;;;31.23;;
48945;SDS011;34999;50.940;3.998;2023-11-21T05:07:32;77.17;;;28.63;;
48945;SDS011;34999;50.940;3.998;2023-11-21T05:10:03;77.43;;;28.80;;
48945;SDS011;34999;50.940;3.998;2023-11-21T05:12:34;95.77;;;33.23;;
48945;SDS011;34999;50.940;3.998;2023-11-21T05:15:05;90.60;;;34.97;;
48945;SDS011;34999;50.940;3.998;2023-11-21T05:17:36;100.50;;;36.30;;
48945;SDS011;34999;50.940;3.998;2023-11-21T05:20:06;98.57;;;35.80;;
48945;SDS011;34999;50.940;3.998;2023-11-21T05:22:36;94.63;;;34.07;;
48945;SDS011;34999;50.940;3.998;2023-11-21T05:25:05;90.37;;;32.27;;
48945;SDS011;34999;50.940;3.998;2023-11-21T05:27:34;90.67;;;33.10;;
48945;SDS011;34999;50.940;3.998;2023-11-21T05:30:05;87.20;;;33.47;;
48945;SDS011;34999;50.940;3.998;2023-11-21T05:32:35;84.93;;;31.67;;
48945;SDS011;34999;50.940;3.998;2023-11-21T05:35:04;69.43;;;29.40;;
48945;SDS011;34999;50.940;3.998;2023-11-21T05:37:36;87.57;;;29.10;;
48945;SDS011;34999;50.940;3.998;2023-11-21T05:40:05;71.17;;;28.87;;
48945;SDS011;34999;50.940;3.998;2023-11-21T05:42:34;87.63;;;29.53;;
48945;SDS011;34999;50.940;3.998;2023-11-21T05:45:06;67.70;;;26.47;;
48945;SDS011;34999;50.940;3.998;2023-11-21T05:47:37;87.20;;;27.27;;
48945;SDS011;34999;50.940;3.998;2023-11-21T05:50:07;66.77;;;24.00;;
48945;SDS011;34999;50.940;3.998;2023-11-21T05:52:43;65.47;;;26.37;;
48945;SDS011;34999;50.940;3.998;2023-11-21T05:55:12;73.47;;;27.27;;
48945;SDS011;34999;50.940;3.998;2023-11-21T05:57:41;90.70;;;27.80;;
48945;SDS011;34999;50.940;3.998;2023-11-21T06:00:13;81.97;;;28.20;;
48945;SDS011;34999;50.940;3.998;2023-11-21T06:02:48;74.60;;;27.60;;
48945;SDS011;34999;50.940;3.998;2023-11-21T06:05:19;73.53;;;30.87;;
48945;SDS011;34999;50.940;3.998;2023-11-21T06:07:49;84.40;;;32.83;;
48945;SDS011;34999;50.940;3.998;2023-11-21T06:10:19;78.13;;;29.87;;
48945;SDS011;34999;50.940;3.998;2023-11-21T06:12:50;93.33;;;31.97;;
48945;SDS011;34999;50.940;3.998;2023-11-21T06:15:21;88.77;;;30.10;;
48945;SDS011;34999;50.940;3.998;2023-11-21T06:17:50;85.50;;;28.77;;
48945;SDS011;34999;50.940;3.998;2023-11-21T06:20:20;75.50;;;26.30;;
48945;SDS011;34999;50.940;3.998;2023-11-21T06:22:50;73.93;;;25.23;;
48945;SDS011;34999;50.940;3.998;2023-11-21T06:25:18;81.90;;;27.57;;
48945;SDS011;34999;50.940;3.998;2023-11-21T06:27:47;93.80;;;32.27;;
48945;SDS011;34999;50.940;3.998;2023-11-21T06:30:16;69.13;;;26.67;;
48945;SDS011;34999;50.940;3.998;2023-11-21T06:32:48;77.63;;;27.33;;
48945;SDS011;34999;50.940;3.998;2023-11-21T06:35:17;122.67;;;39.40;;
48945;SDS011;34999;50.940;3.998;2023-11-21T06:37:46;125.53;;;38.63;;
48945;SDS011;34999;50.940;3.998;2023-11-21T06:40:16;110.43;;;36.43;;
48945;SDS011;34999;50.940;3.998;2023-11-21T06:42:47;103.83;;;33.87;;
48945;SDS011;34999;50.940;3.998;2023-11-21T06:45:16;86.97;;;31.27;;
48945;SDS011;34999;50.940;3.998;2023-11-21T06:47:44;73.50;;;28.97;;
48945;SDS011;34999;50.940;3.998;2023-11-21T06:50:14;90.23;;;32.40;;
48945;SDS011;34999;50.940;3.998;2023-11-21T06:52:43;91.50;;;29.77;;
48945;SDS011;34999;50.940;3.998;2023-11-21T06:55:11;83.27;;;28.10;;
48945;SDS011;34999;50.940;3.998;2023-11-21T06:57:39;107.27;;;33.10;;
48945;SDS011;34999;50.940;3.998;2023-11-21T07:00:08;114.60;;;36.90;;
48945;SDS011;34999;50.940;3.998;2023-11-21T07:02:38;133.33;;;42.77;;
48945;SDS011;34999;50.940;3.998;2023-11-21T07:05:06;118.07;;;38.50;;
48945;SDS011;34999;50.940;3.998;2023-11-21T07:07:36;116.23;;;36.50;;
48945;SDS011;34999;50.940;3.998;2023-11-21T07:10:05;129.97;;;38.17;;
48945;SDS011;34999;50.940;3.998;2023-11-21T07:12:35;119.93;;;39.10;;
48945;SDS011;34999;50.940;3.998;2023-11-21T07:15:04;111.77;;;36.10;;
48945;SDS011;34999;50.940;3.998;2023-11-21T07:17:35;127.10;;;36.03;;
48945;SDS011;34999;50.940;3.998;2023-11-21T07:20:07;131.33;;;35.67;;
48945;SDS011;34999;50.940;3.998;2023-11-21T07:22:39;107.57;;;31.33;;
48945;SDS011;34999;50.940;3.998;2023-11-21T07:25:07;106.27;;;30.00;;
48945;SDS011;34999;50.940;3.998;2023-11-21T07:27:37;112.07;;;31.13;;
48945;SDS011;34999;50.940;3.998;2023-11-21T07:30:05;121.87;;;31.93;;
48945;SDS011;34999;50.940;3.998;2023-11-21T07:32:36;123.27;;;31.87;;
48945;SDS011;34999;50.940;3.998;2023-11-21T07:35:07;128.23;;;31.07;;
48945;SDS011;34999;50.940;3.998;2023-11-21T07:37:36;103.13;;;28.83;;
48945;SDS011;34999;50.940;3.998;2023-11-21T07:40:06;125.37;;;29.90;;
48945;SDS011;34999;50.940;3.998;2023-11-21T07:42:36;115.87;;;29.83;;
48945;SDS011;34999;50.940;3.998;2023-11-21T07:45:04;116.10;;;28.37;;
48945;SDS011;34999;50.940;3.998;2023-11-21T07:47:34;118.73;;;29.70;;
48945;SDS011;34999;50.940;3.998;2023-11-21T07:50:03;121.07;;;29.57;;
48945;SDS011;34999;50.940;3.998;2023-11-21T07:52:34;114.23;;;28.60;;
48945;SDS011;34999;50.940;3.998;2023-11-21T07:55:04;121.13;;;28.77;;
48945;SDS011;34999;50.940;3.998;2023-11-21T07:57:34;128.73;;;29.07;;
48945;SDS011;34999;50.940;3.998;2023-11-21T08:00:02;138.83;;;29.40;;
48945;SDS011;34999;50.940;3.998;2023-11-21T08:02:33;116.73;;;28.07;;
48945;SDS011;34999;50.940;3.998;2023-11-21T08:05:01;129.97;;;28.20;;
48945;SDS011;34999;50.940;3.998;2023-11-21T08:07:31;137.67;;;26.83;;
48945;SDS011;34999;50.940;3.998;2023-11-21T08:18:31;176.37;;;29.73;;
48945;SDS011;34999;50.940;3.998;2023-11-21T08:21:00;160.97;;;29.30;;
48945;SDS011;34999;50.940;3.998;2023-11-21T08:23:29;173.23;;;29.73;;
48945;SDS011;34999;50.940;3.998;2023-11-21T08:25:59;147.07;;;29.30;;
48945;SDS011;34999;50.940;3.998;2023-11-21T08:31:03;164.53;;;31.23;;
48945;SDS011;34999;50.940;3.998;2023-11-21T08:33:32;167.37;;;30.53;;
48945;SDS011;34999;50.940;3.998;2023-11-21T08:36:00;187.50;;;31.50;;
48945;SDS011;34999;50.940;3.998;2023-11-21T08:38:28;143.53;;;28.87;;
48945;SDS011;34999;50.940;3.998;2023-11-21T08:40:57;175.13;;;32.53;;
48945;SDS011;34999;50.940;3.998;2023-11-21T08:43:26;167.80;;;32.13;;
48945;SDS011;34999;50.940;3.998;2023-11-21T08:45:56;168.17;;;30.70;;
48945;SDS011;34999;50.940;3.998;2023-11-21T08:48:24;174.23;;;32.47;;
48945;SDS011;34999;50.940;3.998;2023-11-21T08:50:54;175.37;;;30.93;;
48945;SDS011;34999;50.940;3.998;2023-11-21T08:53:23;162.00;;;31.00;;
48945;SDS011;34999;50.940;3.998;2023-11-21T08:55:53;156.37;;;30.57;;
48945;SDS011;34999;50.940;3.998;2023-11-21T08:58:21;145.83;;;29.13;;
48945;SDS011;34999;50.940;3.998;2023-11-21T09:00:51;160.77;;;33.07;;
48945;SDS011;34999;50.940;3.998;2023-11-21T09:03:19;142.83;;;30.53;;
48945;SDS011;34999;50.940;3.998;2023-11-21T09:08:37;142.07;;;30.33;;
48945;SDS011;34999;50.940;3.998;2023-11-21T09:13:59;137.03;;;30.63;;
48945;SDS011;34999;50.940;3.998;2023-11-21T09:16:29;149.10;;;31.00;;
48945;SDS011;34999;50.940;3.998;2023-11-21T09:18:58;112.20;;;26.80;;
48945;SDS011;34999;50.940;3.998;2023-11-21T09:21:28;111.10;;;28.33;;
48945;SDS011;34999;50.940;3.998;2023-11-21T09:23:56;100.73;;;26.93;;
48945;SDS011;34999;50.940;3.998;2023-11-21T09:26:26;98.83;;;26.57;;
48945;SDS011;34999;50.940;3.998;2023-11-21T09:28:56;86.57;;;25.90;;
48945;SDS011;34999;50.940;3.998;2023-11-21T09:31:24;86.57;;;22.43;;
48945;SDS011;34999;50.940;3.998;2023-11-21T09:33:55;75.27;;;23.07;;
48945;SDS011;34999;50.940;3.998;2023-11-21T09:36:23;74.97;;;23.50;;
48945;SDS011;34999;50.940;3.998;2023-11-21T09:41:46;74.97;;;23.47;;
48945;SDS011;34999;50.940;3.998;2023-11-21T09:44:17;90.97;;;24.27;;
48945;SDS011;34999;50.940;3.998;2023-11-21T09:46:49;76.33;;;23.20;;
48945;SDS011;34999;50.940;3.998;2023-11-21T09:49:22;80.23;;;24.17;;
48945;SDS011;34999;50.940;3.998;2023-11-21T09:51:53;71.53;;;22.10;;
48945;SDS011;34999;50.940;3.998;2023-11-21T09:54:23;75.60;;;22.83;;
48945;SDS011;34999;50.940;3.998;2023-11-21T09:56:53;76.17;;;23.57;;
48945;SDS011;34999;50.940;3.998;2023-11-21T10:05:04;60.47;;;22.30;;
48945;SDS011;34999;50.940;3.998;2023-11-21T10:07:33;56.83;;;20.47;;
48945;SDS011;34999;50.940;3.998;2023-11-21T10:10:03;62.13;;;20.90;;
48945;SDS011;34999;50.940;3.998;2023-11-21T10:12:35;57.03;;;21.67;;
48945;SDS011;34999;50.940;3.998;2023-11-21T10:15:07;54.47;;;20.43;;
48945;SDS011;34999;50.940;3.998;2023-11-21T10:23:33;37.07;;;17.47;;
48945;SDS011;34999;50.940;3.998;2023-11-21T10:26:01;35.80;;;16.10;;
48945;SDS011;34999;50.940;3.998;2023-11-21T10:28:54;30.77;;;14.60;;
48945;SDS011;34999;50.940;3.998;2023-11-21T10:31:24;34.00;;;14.03;;
48945;SDS011;34999;50.940;3.998;2023-11-21T10:33:52;32.70;;;14.10;;
48945;SDS011;34999;50.940;3.998;2023-11-21T10:42:17;25.63;;;10.03;;
48945;SDS011;34999;50.940;3.998;2023-11-21T10:44:47;20.03;;;8.80;;
48945;SDS011;34999;50.940;3.998;2023-11-21T10:47:17;13.10;;;7.20;;
48945;SDS011;34999;50.940;3.998;2023-11-21T10:49:51;13.57;;;8.20;;
48945;SDS011;34999;50.940;3.998;2023-11-21T10:52:21;14.33;;;7.73;;
48945;SDS011;34999;50.940;3.998;2023-11-21T10:54:56;15.90;;;8.03;;
48945;SDS011;34999;50.940;3.998;2023-11-21T10:57:25;11.90;;;7.90;;
48945;SDS011;34999;50.940;3.998;2023-11-21T10:59:54;9.17;;;6.37;;
48945;SDS011;34999;50.940;3.998;2023-11-21T11:02:23;10.07;;;5.93;;
48945;SDS011;34999;50.940;3.998;2023-11-21T11:04:55;8.00;;;5.80;;
48945;SDS011;34999;50.940;3.998;2023-11-21T11:07:27;11.13;;;5.77;;
48945;SDS011;34999;50.940;3.998;2023-11-21T11:13:20;8.53;;;5.47;;
48945;SDS011;34999;50.940;3.998;2023-11-21T11:22:41;11.03;;;4.50;;
48945;SDS011;34999;50.940;3.998;2023-11-21T11:25:21;8.23;;;3.80;;
48945;SDS011;34999;50.940;3.998;2023-11-21T11:28:03;6.80;;;3.90;;
48945;SDS011;34999;50.940;3.998;2023-11-21T11:30:47;6.47;;;3.80;;
48945;SDS011;34999;50.940;3.998;2023-11-21T11:33:31;8.00;;;4.10;;
48945;SDS011;34999;50.940;3.998;2023-11-21T11:36:06;10.60;;;4.10;;
48945;SDS011;34999;50.940;3.998;2023-11-21T11:41:30;9.20;;;3.60;;
48945;SDS011;34999;50.940;3.998;2023-11-21T11:44:05;7.30;;;3.70;;
48945;SDS011;34999;50.940;3.998;2023-11-21T11:50:02;8.07;;;3.07;;
48945;SDS011;34999;50.940;3.998;2023-11-21T11:52:34;5.47;;;3.13;;
48945;SDS011;34999;50.940;3.998;2023-11-21T11:55:07;5.70;;;3.20;;
48945;SDS011;34999;50.940;3.998;2023-11-21T11:57:40;7.17;;;3.63;;
48945;SDS011;34999;50.940;3.998;2023-11-21T12:00:16;5.77;;;3.13;;
48945;SDS011;34999;50.940;3.998;2023-11-21T12:02:47;4.93;;;3.70;;
48945;SDS011;34999;50.940;3.998;2023-11-21T12:05:18;5.50;;;3.10;;
48945;SDS011;34999;50.940;3.998;2023-11-21T12:07:48;9.50;;;3.60;;
48945;SDS011;34999;50.940;3.998;2023-11-21T12:10:21;7.37;;;3.53;;
48945;SDS011;34999;50.940;3.998;2023-11-21T12:12:52;4.37;;;3.37;;
48945;SDS011;34999;50.940;3.998;2023-11-21T12:15:21;4.13;;;3.70;;
48945;SDS011;34999;50.940;3.998;2023-11-21T12:17:49;6.40;;;3.70;;
48945;SDS011;34999;50.940;3.998;2023-11-21T12:20:18;4.37;;;3.30;;
48945;SDS011;34999;50.940;3.998;2023-11-21T12:22:48;10.60;;;3.90;;
48945;SDS011;34999;50.940;3.998;2023-11-21T12:25:18;7.70;;;3.60;;
48945;SDS011;34999;50.940;3.998;2023-11-21T12:27:50;11.40;;;3.47;;
48945;SDS011;34999;50.940;3.998;2023-11-21T12:30:20;8.13;;;3.40;;
48945;SDS011;34999;50.940;3.998;2023-11-21T12:32:49;4.07;;;3.30;;
48945;SDS011;34999;50.940;3.998;2023-11-21T12:35:19;8.80;;;3.60;;
48945;SDS011;34999;50.940;3.998;2023-11-21T12:37:49;4.77;;;3.67;;
48945;SDS011;34999;50.940;3.998;2023-11-21T12:40:18;12.70;;;3.73;;
48945;SDS011;34999;50.940;3.998;2023-11-21T12:42:51;5.83;;;3.90;;
48945;SDS011;34999;50.940;3.998;2023-11-21T12:45:21;5.60;;;3.60;;
48945;SDS011;34999;50.940;3.998;2023-11-21T12:47:54;8.23;;;3.87;;
48945;SDS011;34999;50.940;3.998;2023-11-21T12:50:27;12.73;;;3.80;;
48945;SDS011;34999;50.940;3.998;2023-11-21T12:52:59;8.30;;;4.33;;
48945;SDS011;34999;50.940;3.998;2023-11-21T12:55:31;7.87;;;4.27;;
48945;SDS011;34999;50.940;3.998;2023-11-21T12:58:04;7.33;;;4.53;;
48945;SDS011;34999;50.940;3.998;2023-11-21T13:00:36;7.27;;;5.00;;
48945;SDS011;34999;50.940;3.998;2023-11-21T13:03:05;9.33;;;5.50;;
48945;SDS011;34999;50.940;3.998;2023-11-21T13:05:35;9.37;;;5.83;;
48945;SDS011;34999;50.940;3.998;2023-11-21T13:08:05;11.00;;;6.00;;
48945;SDS011;34999;50.940;3.998;2023-11-21T13:10:37;8.90;;;6.30;;
48945;SDS011;34999;50.940;3.998;2023-11-21T13:13:09;14.27;;;6.83;;
48945;SDS011;34999;50.940;3.998;2023-11-21T13:15:48;10.27;;;7.47;;
48945;SDS011;34999;50.940;3.998;2023-11-21T13:18:19;10.37;;;7.50;;
48945;SDS011;34999;50.940;3.998;2023-11-21T13:20:48;9.40;;;7.93;;
48945;SDS011;34999;50.940;3.998;2023-11-21T13:23:17;16.30;;;8.80;;
48945;SDS011;34999;50.940;3.998;2023-11-21T13:25:46;17.13;;;10.03;;
48945;SDS011;34999;50.940;3.998;2023-11-21T13:28:27;14.07;;;9.20;;
48945;SDS011;34999;50.940;3.998;2023-11-21T13:30:59;14.20;;;9.53;;
48945;SDS011;34999;50.940;3.998;2023-11-21T13:33:36;14.53;;;9.87;;
48945;SDS011;34999;50.940;3.998;2023-11-21T13:36:05;17.17;;;12.20;;
48945;SDS011;34999;50.940;3.998;2023-11-21T13:38:36;21.63;;;14.47;;
48945;SDS011;34999;50.940;3.998;2023-11-21T13:41:10;20.37;;;14.17;;
48945;SDS011;34999;50.940;3.998;2023-11-21T13:43:41;16.13;;;10.57;;
48945;SDS011;34999;50.940;3.998;2023-11-21T13:46:17;11.93;;;10.13;;
48945;SDS011;34999;50.940;3.998;2023-11-21T13:48:48;14.77;;;9.60;;
48945;SDS011;34999;50.940;3.998;2023-11-21T13:51:23;12.00;;;8.87;;
48945;SDS011;34999;50.940;3.998;2023-11-21T13:54:00;14.37;;;8.60;;
48945;SDS011;34999;50.940;3.998;2023-11-21T13:56:30;14.60;;;8.50;;
48945;SDS011;34999;50.940;3.998;2023-11-21T13:58:59;11.83;;;8.70;;
48945;SDS011;34999;50.940;3.998;2023-11-21T14:01:35;12.80;;;8.13;;
48945;SDS011;34999;50.940;3.998;2023-11-21T14:04:21;16.50;;;9.07;;
48945;SDS011;34999;50.940;3.998;2023-11-21T14:07:05;10.13;;;7.60;;
48945;SDS011;34999;50.940;3.998;2023-11-21T14:09:50;11.03;;;8.10;;
48945;SDS011;34999;50.940;3.998;2023-11-21T14:12:20;13.80;;;8.00;;
48945;SDS011;34999;50.940;3.998;2023-11-21T14:14:49;9.97;;;7.63;;
48945;SDS011;34999;50.940;3.998;2023-11-21T14:17:18;10.43;;;8.13;;
48945;SDS011;34999;50.940;3.998;2023-11-21T14:19:49;12.60;;;8.13;;
48945;SDS011;34999;50.940;3.998;2023-11-21T14:22:17;10.17;;;7.13;;
48945;SDS011;34999;50.940;3.998;2023-11-21T14:24:47;9.87;;;7.10;;
48945;SDS011;34999;50.940;3.998;2023-11-21T14:27:16;10.63;;;7.27;;
48945;SDS011;34999;50.940;3.998;2023-11-21T14:29:47;9.27;;;6.60;;
48945;SDS011;34999;50.940;3.998;2023-11-21T14:32:15;8.80;;;6.70;;
48945;SDS011;34999;50.940;3.998;2023-11-21T14:34:43;8.20;;;6.23;;
48945;SDS011;34999;50.940;3.998;2023-11-21T14:37:14;9.57;;;7.33;;
48945;SDS011;34999;50.940;3.998;2023-11-21T14:39:42;8.27;;;5.60;;
48945;SDS011;34999;50.940;3.998;2023-11-21T14:42:14;8.90;;;5.77;;
48945;SDS011;34999;50.940;3.998;2023-11-21T14:44:42;7.80;;;5.83;;
48945;SDS011;34999;50.940;3.998;2023-11-21T14:47:12;7.43;;;6.13;;
48945;SDS011;34999;50.940;3.998;2023-11-21T14:49:43;7.80;;;5.50;;
48945;SDS011;34999;50.940;3.998;2023-11-21T14:52:20;11.23;;;6.33;;
48945;SDS011;34999;50.940;3.998;2023-11-21T14:55:02;8.37;;;6.20;;
48945;SDS011;34999;50.940;3.998;2023-11-21T14:57:58;7.90;;;6.10;;
48945;SDS011;34999;50.940;3.998;2023-11-21T15:00:30;8.97;;;6.57;;
48945;SDS011;34999;50.940;3.998;2023-11-21T15:03:09;17.23;;;6.93;;
48945;SDS011;34999;50.940;3.998;2023-11-21T15:05:38;9.93;;;6.37;;
48945;SDS011;34999;50.940;3.998;2023-11-21T15:08:07;8.97;;;6.50;;
48945;SDS011;34999;50.940;3.998;2023-11-21T15:10:48;9.47;;;6.50;;
48945;SDS011;34999;50.940;3.998;2023-11-21T15:13:20;9.43;;;6.67;;
48945;SDS011;34999;50.940;3.998;2023-11-21T15:15:50;8.37;;;6.03;;
48945;SDS011;34999;50.940;3.998;2023-11-21T15:18:22;10.10;;;6.97;;
48945;SDS011;34999;50.940;3.998;2023-11-21T15:20:51;8.73;;;6.27;;
48945;SDS011;34999;50.940;3.998;2023-11-21T15:23:19;11.80;;;6.17;;
48945;SDS011;34999;50.940;3.998;2023-11-21T15:25:47;9.03;;;5.90;;
48945;SDS011;34999;50.940;3.998;2023-11-21T15:28:17;8.70;;;5.57;;
48945;SDS011;34999;50.940;3.998;2023-11-21T15:30:46;9.07;;;6.37;;
48945;SDS011;34999;50.940;3.998;2023-11-21T15:33:18;9.93;;;6.07;;
48945;SDS011;34999;50.940;3.998;2023-11-21T15:35:47;8.33;;;6.40;;
48945;SDS011;34999;50.940;3.998;2023-11-21T15:38:16;8.30;;;6.50;;
48945;SDS011;34999;50.940;3.998;2023-11-21T15:40:44;9.57;;;6.80;;
48945;SDS011;34999;50.940;3.998;2023-11-21T15:43:13;9.83;;;6.40;;
48945;SDS011;34999;50.940;3.998;2023-11-21T15:45:41;9.80;;;6.83;;